»·PEaware :: N9196G KDTA-KPRC

N9196G :: KDTA-KPRC

FLIGHT INFORMATION

Flight Status: Arrived
Operator: Privately registered:
United States
More flights under this callsign
Pilot: Christopher N. (41122)
Aircraft: SOCATA TBM-900
(TBM9)
More flights by this aircraft type
Origin: KDTA Delta Mun
United States
Destination: KPRC Love
United States
More flights between these airports :: More routes between these airports
Route: DTA1 DTA V257 DRK
File this flight plan on PilotEdge
Remarks:
Altitude:
(Current/Filed)
21,000ft
Speed:
(Current/Filed)
230kts
Departed: 25-Apr-23 12:25 PM
Arrived: 25-Apr-23 01:38 PM
Distance/Time
Traveled:
284nm/1:13
Distance/Time
To Go:
Arrived

Flight Plot

Page will automatically refresh every two minutes.

Flight plan parsing failed; only flown route is shown


Map Options




Map Legend


Flown Route
Filed Route
Departure Airport
Arrival Airport
Navaid (VOR, NDB)
Fix

Horizontal Profiles

Position Reports

Time Latitude Longitude Heading Altitude Ground
Speed
25-Apr-23 11:54 39.385677 -112.512543 42 4755ft 0kts
25-Apr-23 11:55 39.385677 -112.512543 42 4755ft 0kts
25-Apr-23 11:56 39.385677 -112.512543 42 4755ft 0kts
25-Apr-23 11:57 39.385677 -112.512543 42 4755ft 0kts
25-Apr-23 11:58 39.385677 -112.512543 42 4755ft 0kts
25-Apr-23 11:59 39.385677 -112.512543 42 4755ft 0kts
25-Apr-23 12:00 39.385677 -112.512543 42 4755ft 0kts
25-Apr-23 12:01 39.385677 -112.512543 42 4755ft 0kts
25-Apr-23 12:02 39.385677 -112.512543 42 4755ft 0kts
25-Apr-23 12:03 39.385677 -112.512543 42 4755ft 0kts
25-Apr-23 12:04 39.385677 -112.512543 42 4755ft 0kts
25-Apr-23 12:05 39.385677 -112.512543 42 4755ft 0kts
25-Apr-23 12:06 39.385677 -112.512543 42 4755ft 0kts
25-Apr-23 12:07 39.385684 -112.512535 45 4755ft 1kts
25-Apr-23 12:08 39.385204 -112.512280 149 4756ft 0kts
25-Apr-23 12:10 39.385204 -112.512280 149 4756ft 0kts
25-Apr-23 12:11 39.385204 -112.512280 149 4756ft 0kts
25-Apr-23 12:12 39.385204 -112.512280 149 4756ft 0kts
25-Apr-23 12:13 39.385204 -112.512280 149 4756ft 0kts
25-Apr-23 12:14 39.385204 -112.512280 149 4756ft 0kts
25-Apr-23 12:15 39.385204 -112.512280 149 4756ft 0kts
25-Apr-23 12:16 39.385204 -112.512280 149 4756ft 0kts
25-Apr-23 12:17 39.385204 -112.512280 149 4756ft 0kts
25-Apr-23 12:18 39.384810 -112.511823 132 4756ft 12kts
25-Apr-23 12:19 39.381845 -112.511418 134 4751ft 13kts
25-Apr-23 12:20 39.379067 -112.507865 135 4752ft 18kts
25-Apr-23 12:21 39.375429 -112.503229 135 4748ft 11kts
25-Apr-23 12:22 39.375402 -112.503195 134 4748ft 0kts
25-Apr-23 12:23 39.375402 -112.503195 134 4748ft 0kts
25-Apr-23 12:24 39.374980 -112.502659 133 4747ft 10kts
25-Apr-23 12:25 39.394469 -112.502036 5 5341ft 125kts
25-Apr-23 12:26 39.415723 -112.528195 236 7744ft 151kts
25-Apr-23 12:27 39.375400 -112.543888 190 10327ft 156kts
25-Apr-23 12:28 39.335584 -112.534577 137 12595ft 163kts
25-Apr-23 12:29 39.295644 -112.506175 185 15020ft 171kts
25-Apr-23 12:30 39.247850 -112.512926 186 17642ft 177kts
25-Apr-23 12:31 39.197705 -112.519702 186 19961ft 186kts
25-Apr-23 12:32 39.141844 -112.527218 185 21045ft 234kts
25-Apr-23 12:33 39.071819 -112.536608 185 21139ft 267kts
25-Apr-23 12:33 39.008986 -112.545037 186 21133ft 276kts
25-Apr-23 12:35 38.919774 -112.557011 186 21129ft 275kts
25-Apr-23 12:36 38.843870 -112.567154 186 21127ft 273kts
25-Apr-23 12:37 38.768491 -112.577209 186 21128ft 272kts
25-Apr-23 12:38 38.693258 -112.587223 186 21128ft 272kts
25-Apr-23 12:38 38.630690 -112.595535 186 21128ft 272kts
25-Apr-23 12:39 38.555284 -112.605532 186 21128ft 272kts
25-Apr-23 12:41 38.467711 -112.617115 186 21128ft 272kts
25-Apr-23 12:42 38.392494 -112.627043 186 21128ft 272kts
25-Apr-23 12:42 38.329631 -112.633182 167 21103ft 274kts
25-Apr-23 12:43 38.259461 -112.596351 157 21128ft 273kts
25-Apr-23 12:44 38.189262 -112.560012 158 21117ft 274kts
25-Apr-23 12:45 38.118612 -112.523596 158 21095ft 274kts
25-Apr-23 12:47 38.036259 -112.481245 158 21082ft 274kts
25-Apr-23 12:47 37.977520 -112.451103 158 21082ft 274kts
25-Apr-23 12:48 37.907010 -112.414989 158 21082ft 274kts
25-Apr-23 12:49 37.836279 -112.378844 158 21082ft 274kts
25-Apr-23 12:50 37.765756 -112.342872 158 21082ft 273kts
25-Apr-23 12:51 37.695147 -112.306941 158 21081ft 273kts
25-Apr-23 12:52 37.620141 -112.297396 176 21082ft 272kts
25-Apr-23 12:53 37.544684 -112.290425 176 21091ft 272kts
25-Apr-23 12:54 37.469394 -112.283427 176 21091ft 272kts
25-Apr-23 12:55 37.393577 -112.276394 176 21084ft 273kts
25-Apr-23 12:56 37.318204 -112.269418 176 21070ft 273kts
25-Apr-23 12:57 37.242445 -112.262435 176 21061ft 272kts
25-Apr-23 12:58 37.166891 -112.255487 176 21058ft 272kts
25-Apr-23 12:59 37.091548 -112.248531 177 21055ft 272kts
25-Apr-23 13:00 37.016506 -112.241677 178 21054ft 267kts
25-Apr-23 13:01 36.944225 -112.235117 176 21050ft 256kts
25-Apr-23 13:02 36.874049 -112.228638 176 21056ft 251kts
25-Apr-23 13:03 36.804627 -112.222722 175 21055ft 250kts
25-Apr-23 13:04 36.735309 -112.215978 176 21056ft 250kts
25-Apr-23 13:05 36.665802 -112.209621 176 21055ft 250kts
25-Apr-23 13:06 36.596390 -112.203304 176 21053ft 250kts
25-Apr-23 13:07 36.527136 -112.197002 176 21049ft 250kts
25-Apr-23 13:08 36.457608 -112.190677 176 21045ft 250kts
25-Apr-23 13:09 36.388312 -112.184384 176 21045ft 250kts
25-Apr-23 13:10 36.319068 -112.178145 176 21044ft 250kts
25-Apr-23 13:11 36.249787 -112.171924 176 21044ft 250kts
25-Apr-23 13:12 36.180335 -112.165697 176 21043ft 250kts
25-Apr-23 13:13 36.110998 -112.159493 176 21043ft 250kts
25-Apr-23 13:14 36.041934 -112.153324 176 21043ft 250kts
25-Apr-23 13:15 35.972745 -112.147154 176 21042ft 250kts
25-Apr-23 13:16 35.910786 -112.182512 209 21043ft 251kts
25-Apr-23 13:17 35.850804 -112.226865 208 21048ft 252kts
25-Apr-23 13:18 35.790593 -112.271184 208 21047ft 252kts
25-Apr-23 13:19 35.730414 -112.315396 208 21046ft 252kts
25-Apr-23 13:20 35.670188 -112.359564 208 20998ft 254kts
25-Apr-23 13:21 35.606547 -112.406136 208 20023ft 273kts
25-Apr-23 13:22 35.534330 -112.428544 183 19031ft 276kts
25-Apr-23 13:23 35.457320 -112.435294 183 18033ft 279kts
25-Apr-23 13:24 35.379695 -112.439589 178 17032ft 280kts
25-Apr-23 13:25 35.301408 -112.441966 182 16025ft 282kts
25-Apr-23 13:26 35.222663 -112.447067 182 15020ft 284kts
25-Apr-23 13:27 35.145639 -112.452031 182 14007ft 271kts
25-Apr-23 13:28 35.070833 -112.456843 182 12997ft 268kts
25-Apr-23 13:29 34.997722 -112.441575 160 11614ft 276kts
25-Apr-23 13:30 34.926462 -112.410863 160 10497ft 267kts
25-Apr-23 13:31 34.857134 -112.380689 169 9371ft 262kts
25-Apr-23 13:32 34.787824 -112.371578 174 8264ft 230kts
25-Apr-23 13:33 34.735276 -112.362946 175 8099ft 136kts
25-Apr-23 13:34 34.700915 -112.370257 219 6630ft 124kts
25-Apr-23 13:35 34.681516 -112.391273 223 5707ft 78kts
25-Apr-23 13:36 34.665253 -112.408010 222 5081ft 73kts
25-Apr-23 13:37 34.657790 -112.416838 309 4967ft 9kts
25-Apr-23 13:38 34.657388 -112.417836 224 4972ft 11kts
25-Apr-23 13:39 34.655150 -112.420446 291 4986ft 9kts
25-Apr-23 13:40 34.654947 -112.421755 304 4987ft 0kts
25-Apr-23 13:41 34.654947 -112.421755 304 4987ft 0kts
25-Apr-23 13:42 34.654947 -112.421755 304 4987ft 0kts
25-Apr-23 13:43 34.654947 -112.421755 304 4987ft 0kts

Navigation Log

Ident Type
Flight plan parsing failed, navigation log unavailable